LFLB METAR and TAF | Updated Today

LFLB METAR

Chambéry-Savoie Airport

Observation time: 25 min. ago

LFLB 011630Z AUTO VRB03KT 9999 BKN040 OVC047 07/01 Q1029 NOSIG

Need help? Read our tutorial on how to read METARs or read the parsed version below.

Chambéry-Savoie Airport (LFLB) METAR

  • Weather conditions on Wed, 01 Feb 2023 16:30:00 +0000 (25 min. ago):
  • Present conditions: Dry
  • Clouds: Broken sky at 1219 meters; overcast sky at 1433 meters
  • Visibility: Greater than 10 km
  • Wind: Variable at 3 knots
  • Temperature: 7 celsius
  • Dew point: 1 celsius
  • Pressure: 1029 millibars
  • Remarks: None


Useful to know...

LFLB TAF

Chambéry-Savoie Airport

TAF LFLB 011400Z 0115/0215 01007KT 9999 SCT040 BECMG 0207/0209 CAVOK
Observation time: 2:55 hr. ago
Need help? Read our tutorial on how to read TAFs or read the parsed version below.

Parsed version of TAF for Chambéry-Savoie Airport (LFLB)

  • From 01 February at 15:00 UTC, to day 02 of the month at 15:00 UTC
  • Clouds: Scattered at 1219 meters
  • Visibility: Greater than 10 km
  • Wind: 10 degrees at 7
  • Expected to arise soon, from 02 February at 07:00 UTC, to day 02 of the month at 09:00 UTC
  • Visibility: Greater than 10 km